Aérodrome :
LOGIN :

S'inscrire | Disclaimer

   EN    FR    IT 

 










Légende :    VFR   VFR Marginal   IFR   IFR Intensif   IFR Très Intensif
Visi : 
Plafond : 
>= 8 km
>= 3000ft
5 à 8 km
1000 à 3000 ft
1500m à 5 km
500 à 1000 ft
800 à 1500m
200 à 500 ft
< 800m
< 200 ft
Symboles :   Orages  Brouillard  Fortes neiges  Fortes précipitations  Vent > 20 kt
SIGMETs :   Divers  Orages  Givrage  Turbulence  Onde Orograph.  Cendres Volcan.






- Altitude de l'aérodrome : 675 ft
- Code IATA : RZE


EPRZ - Rzeszow-Jasionka

DERNIER METAR :
  • 271200Z 08007KT 060V130 9999 BKN020 16/12 Q1000

METARs EXPIRÉS :
  • 271130Z 08005KT 050V110 9999 SCT015 BKN030 15/12 Q1001
  • 271100Z 07005KT 020V110 9999 SCT013 BKN023 15/12 Q1001
  • 271030Z 07003KT 350V150 9999 BKN013 14/12 Q1001
  • 271000Z 07004KT 030V120 9999 BKN009 13/11 Q1001
  • 270930Z 07004KT 030V130 9999 BKN007 12/11 Q1002

TAF TAF EPRZ
Valide du 27 à 12h jusqu'au 28 à 12h UTC


271130Z 2712/2812 09005KT 9999 SCT030
TEMPO 2712/2721 16010KT
BECMG 2721/2724 27010KT
TEMPO 2721/2806 4000 SHRA BKN005 BKN015CB



MET'MAP, la Météo Aéronautique d'un coup d'oeil ! - Copyright ORBIFLY Décembre 2007 - Disclaimer

ORBIFLY MET'MAP TEAM :

Programmation & Développement : Alexandra Zaïnal
Sur une idée originale de : Baudouin d'Aumeries
Soutien technique & logistique : Manuel Goepfert
Assistance : Marc-Olivier Méhu




SOURCES & CREDITS :

   NOAA